sensor_id;sensor_type;location;lat;lon;timestamp;P1;durP1;ratioP1;P2;durP2;ratioP2
53010;SDS011;42803;55.762;38.084;2023-04-07T00:00:05;3.30;;;1.50;;
53010;SDS011;42803;55.762;38.084;2023-04-07T00:02:38;4.13;;;1.60;;
53010;SDS011;42803;55.762;38.084;2023-04-07T00:05:10;2.10;;;1.20;;
53010;SDS011;42803;55.762;38.084;2023-04-07T00:07:39;2.95;;;1.27;;
53010;SDS011;42803;55.762;38.084;2023-04-07T00:10:22;1.80;;;1.58;;
53010;SDS011;42803;55.762;38.084;2023-04-07T00:12:51;3.35;;;1.23;;
53010;SDS011;42803;55.762;38.084;2023-04-07T00:15:22;2.95;;;1.52;;
53010;SDS011;42803;55.762;38.084;2023-04-07T00:17:51;2.58;;;1.50;;
53010;SDS011;42803;55.762;38.084;2023-04-07T00:20:20;2.17;;;1.50;;
53010;SDS011;42803;55.762;38.084;2023-04-07T00:22:49;1.60;;;1.23;;
53010;SDS011;42803;55.762;38.084;2023-04-07T00:25:18;1.98;;;1.10;;
53010;SDS011;42803;55.762;38.084;2023-04-07T00:27:47;1.45;;;1.20;;
53010;SDS011;42803;55.762;38.084;2023-04-07T00:30:16;3.88;;;1.60;;
53010;SDS011;42803;55.762;38.084;2023-04-07T00:32:47;2.13;;;1.50;;
53010;SDS011;42803;55.762;38.084;2023-04-07T00:35:17;1.38;;;1.00;;
53010;SDS011;42803;55.762;38.084;2023-04-07T00:37:47;1.67;;;1.10;;
53010;SDS011;42803;55.762;38.084;2023-04-07T00:40:16;2.92;;;1.33;;
53010;SDS011;42803;55.762;38.084;2023-04-07T00:42:45;1.27;;;1.08;;
53010;SDS011;42803;55.762;38.084;2023-04-07T00:45:14;1.88;;;1.30;;
53010;SDS011;42803;55.762;38.084;2023-04-07T00:47:43;1.45;;;1.00;;
53010;SDS011;42803;55.762;38.084;2023-04-07T00:50:14;2.35;;;1.50;;
53010;SDS011;42803;55.762;38.084;2023-04-07T00:52:43;1.67;;;1.23;;
53010;SDS011;42803;55.762;38.084;2023-04-07T00:55:13;2.70;;;1.40;;
53010;SDS011;42803;55.762;38.084;2023-04-07T00:57:42;2.45;;;1.27;;
53010;SDS011;42803;55.762;38.084;2023-04-07T01:00:14;5.47;;;1.67;;
53010;SDS011;42803;55.762;38.084;2023-04-07T01:02:44;3.75;;;1.65;;
53010;SDS011;42803;55.762;38.084;2023-04-07T01:05:22;2.28;;;1.20;;
53010;SDS011;42803;55.762;38.084;2023-04-07T01:08:00;3.17;;;1.50;;
53010;SDS011;42803;55.762;38.084;2023-04-07T01:10:39;4.03;;;1.42;;
53010;SDS011;42803;55.762;38.084;2023-04-07T01:13:19;2.85;;;1.23;;
53010;SDS011;42803;55.762;38.084;2023-04-07T01:15:57;3.28;;;1.30;;
53010;SDS011;42803;55.762;38.084;2023-04-07T01:18:36;1.50;;;1.20;;
53010;SDS011;42803;55.762;38.084;2023-04-07T01:21:08;4.75;;;1.45;;
53010;SDS011;42803;55.762;38.084;2023-04-07T01:23:48;2.95;;;1.17;;
53010;SDS011;42803;55.762;38.084;2023-04-07T01:26:29;2.67;;;0.98;;
53010;SDS011;42803;55.762;38.084;2023-04-07T01:31:53;1.88;;;1.50;;
53010;SDS011;42803;55.762;38.084;2023-04-07T01:34:24;4.03;;;1.48;;
53010;SDS011;42803;55.762;38.084;2023-04-07T01:36:54;1.80;;;1.10;;
53010;SDS011;42803;55.762;38.084;2023-04-07T01:39:25;3.15;;;1.15;;
53010;SDS011;42803;55.762;38.084;2023-04-07T01:41:55;1.98;;;1.35;;
53010;SDS011;42803;55.762;38.084;2023-04-07T01:44:30;4.00;;;2.38;;
53010;SDS011;42803;55.762;38.084;2023-04-07T01:47:00;2.25;;;1.58;;
53010;SDS011;42803;55.762;38.084;2023-04-07T01:49:30;2.60;;;1.67;;
53010;SDS011;42803;55.762;38.084;2023-04-07T01:52:00;2.30;;;1.42;;
53010;SDS011;42803;55.762;38.084;2023-04-07T01:54:29;2.55;;;1.60;;
53010;SDS011;42803;55.762;38.084;2023-04-07T01:57:00;2.85;;;1.38;;
53010;SDS011;42803;55.762;38.084;2023-04-07T01:59:30;2.60;;;1.30;;
53010;SDS011;42803;55.762;38.084;2023-04-07T02:02:00;2.58;;;1.40;;
53010;SDS011;42803;55.762;38.084;2023-04-07T02:04:31;2.08;;;1.30;;
53010;SDS011;42803;55.762;38.084;2023-04-07T02:07:07;3.47;;;1.40;;
53010;SDS011;42803;55.762;38.084;2023-04-07T02:09:46;2.38;;;1.52;;
53010;SDS011;42803;55.762;38.084;2023-04-07T02:12:17;2.40;;;1.30;;
53010;SDS011;42803;55.762;38.084;2023-04-07T02:14:59;2.35;;;1.40;;
53010;SDS011;42803;55.762;38.084;2023-04-07T02:17:29;1.60;;;1.20;;
53010;SDS011;42803;55.762;38.084;2023-04-07T02:20:02;1.98;;;1.20;;
53010;SDS011;42803;55.762;38.084;2023-04-07T02:22:33;1.58;;;1.27;;
53010;SDS011;42803;55.762;38.084;2023-04-07T02:25:02;1.42;;;1.20;;
53010;SDS011;42803;55.762;38.084;2023-04-07T02:27:49;3.45;;;1.20;;
53010;SDS011;42803;55.762;38.084;2023-04-07T02:30:19;3.75;;;1.48;;
53010;SDS011;42803;55.762;38.084;2023-04-07T02:32:50;2.40;;;1.35;;
53010;SDS011;42803;55.762;38.084;2023-04-07T02:35:20;2.10;;;1.15;;
53010;SDS011;42803;55.762;38.084;2023-04-07T02:37:49;2.50;;;1.40;;
53010;SDS011;42803;55.762;38.084;2023-04-07T02:40:18;3.75;;;1.30;;
53010;SDS011;42803;55.762;38.084;2023-04-07T02:42:47;2.17;;;0.90;;
53010;SDS011;42803;55.762;38.084;2023-04-07T02:45:16;3.17;;;1.67;;
53010;SDS011;42803;55.762;38.084;2023-04-07T02:47:46;2.03;;;1.50;;
53010;SDS011;42803;55.762;38.084;2023-04-07T02:50:17;1.58;;;1.27;;
53010;SDS011;42803;55.762;38.084;2023-04-07T02:52:46;2.47;;;1.38;;
53010;SDS011;42803;55.762;38.084;2023-04-07T02:55:15;2.22;;;1.40;;
53010;SDS011;42803;55.762;38.084;2023-04-07T02:57:45;3.53;;;1.58;;
53010;SDS011;42803;55.762;38.084;2023-04-07T03:00:25;5.05;;;1.38;;
53010;SDS011;42803;55.762;38.084;2023-04-07T03:03:04;1.30;;;1.17;;
53010;SDS011;42803;55.762;38.084;2023-04-07T03:05:36;1.50;;;1.30;;
53010;SDS011;42803;55.762;38.084;2023-04-07T03:08:07;2.92;;;1.63;;
53010;SDS011;42803;55.762;38.084;2023-04-07T03:10:39;3.15;;;1.30;;
53010;SDS011;42803;55.762;38.084;2023-04-07T03:13:08;4.45;;;1.65;;
53010;SDS011;42803;55.762;38.084;2023-04-07T03:15:39;1.83;;;1.35;;
53010;SDS011;42803;55.762;38.084;2023-04-07T03:18:10;3.10;;;1.40;;
53010;SDS011;42803;55.762;38.084;2023-04-07T03:20:42;2.00;;;1.30;;
53010;SDS011;42803;55.762;38.084;2023-04-07T03:23:14;3.85;;;1.67;;
53010;SDS011;42803;55.762;38.084;2023-04-07T03:25:43;3.90;;;1.40;;
53010;SDS011;42803;55.762;38.084;2023-04-07T03:28:16;2.55;;;1.40;;
53010;SDS011;42803;55.762;38.084;2023-04-07T03:30:45;3.30;;;1.90;;
53010;SDS011;42803;55.762;38.084;2023-04-07T03:33:15;1.90;;;1.42;;
53010;SDS011;42803;55.762;38.084;2023-04-07T03:35:45;3.75;;;1.27;;
53010;SDS011;42803;55.762;38.084;2023-04-07T03:38:14;2.85;;;1.63;;
53010;SDS011;42803;55.762;38.084;2023-04-07T03:40:44;4.30;;;1.85;;
53010;SDS011;42803;55.762;38.084;2023-04-07T03:43:13;5.10;;;1.77;;
53010;SDS011;42803;55.762;38.084;2023-04-07T03:45:44;3.53;;;1.52;;
53010;SDS011;42803;55.762;38.084;2023-04-07T03:48:17;3.97;;;2.00;;
53010;SDS011;42803;55.762;38.084;2023-04-07T03:50:59;1.77;;;1.33;;
53010;SDS011;42803;55.762;38.084;2023-04-07T03:53:30;3.75;;;1.50;;
53010;SDS011;42803;55.762;38.084;2023-04-07T03:56:05;2.65;;;1.70;;
53010;SDS011;42803;55.762;38.084;2023-04-07T03:58:47;3.58;;;1.63;;
53010;SDS011;42803;55.762;38.084;2023-04-07T04:01:24;3.10;;;1.55;;
53010;SDS011;42803;55.762;38.084;2023-04-07T04:03:56;3.70;;;1.45;;
53010;SDS011;42803;55.762;38.084;2023-04-07T04:06:28;5.75;;;1.80;;
53010;SDS011;42803;55.762;38.084;2023-04-07T04:09:06;2.30;;;1.27;;
53010;SDS011;42803;55.762;38.084;2023-04-07T04:11:41;4.72;;;1.35;;
53010;SDS011;42803;55.762;38.084;2023-04-07T04:14:10;2.45;;;1.40;;
53010;SDS011;42803;55.762;38.084;2023-04-07T04:16:40;3.67;;;1.52;;
53010;SDS011;42803;55.762;38.084;2023-04-07T04:19:25;4.88;;;1.55;;
53010;SDS011;42803;55.762;38.084;2023-04-07T04:21:56;3.03;;;1.60;;
53010;SDS011;42803;55.762;38.084;2023-04-07T04:24:28;2.88;;;1.55;;
53010;SDS011;42803;55.762;38.084;2023-04-07T04:27:01;3.35;;;1.63;;
53010;SDS011;42803;55.762;38.084;2023-04-07T04:29:32;6.93;;;2.22;;
53010;SDS011;42803;55.762;38.084;2023-04-07T04:32:03;8.60;;;3.67;;
53010;SDS011;42803;55.762;38.084;2023-04-07T04:34:35;6.20;;;2.85;;
53010;SDS011;42803;55.762;38.084;2023-04-07T04:37:04;8.57;;;3.33;;
53010;SDS011;42803;55.762;38.084;2023-04-07T04:39:33;9.10;;;4.15;;
53010;SDS011;42803;55.762;38.084;2023-04-07T04:42:03;10.43;;;5.00;;
53010;SDS011;42803;55.762;38.084;2023-04-07T04:44:35;9.57;;;3.70;;
53010;SDS011;42803;55.762;38.084;2023-04-07T04:47:06;7.50;;;2.95;;
53010;SDS011;42803;55.762;38.084;2023-04-07T04:49:39;5.50;;;2.85;;
53010;SDS011;42803;55.762;38.084;2023-04-07T04:52:08;5.63;;;2.42;;
53010;SDS011;42803;55.762;38.084;2023-04-07T04:54:40;3.25;;;2.17;;
53010;SDS011;42803;55.762;38.084;2023-04-07T04:57:11;3.20;;;2.05;;
53010;SDS011;42803;55.762;38.084;2023-04-07T04:59:40;4.70;;;1.80;;
53010;SDS011;42803;55.762;38.084;2023-04-07T05:02:09;3.83;;;1.70;;
53010;SDS011;42803;55.762;38.084;2023-04-07T05:04:40;2.17;;;1.45;;
53010;SDS011;42803;55.762;38.084;2023-04-07T05:07:19;3.63;;;1.58;;
53010;SDS011;42803;55.762;38.084;2023-04-07T05:09:48;1.95;;;1.30;;
53010;SDS011;42803;55.762;38.084;2023-04-07T05:12:19;2.88;;;1.60;;
53010;SDS011;42803;55.762;38.084;2023-04-07T05:14:56;4.93;;;1.67;;
53010;SDS011;42803;55.762;38.084;2023-04-07T05:17:25;2.97;;;1.63;;
53010;SDS011;42803;55.762;38.084;2023-04-07T05:19:57;2.35;;;1.52;;
53010;SDS011;42803;55.762;38.084;2023-04-07T05:22:34;2.33;;;1.50;;
53010;SDS011;42803;55.762;38.084;2023-04-07T05:25:06;7.18;;;1.77;;
53010;SDS011;42803;55.762;38.084;2023-04-07T05:27:38;2.58;;;1.40;;
53010;SDS011;42803;55.762;38.084;2023-04-07T05:30:13;4.67;;;1.70;;
53010;SDS011;42803;55.762;38.084;2023-04-07T05:32:44;6.63;;;1.80;;
53010;SDS011;42803;55.762;38.084;2023-04-07T05:35:25;2.63;;;1.30;;
53010;SDS011;42803;55.762;38.084;2023-04-07T05:37:56;1.58;;;1.10;;
53010;SDS011;42803;55.762;38.084;2023-04-07T05:40:28;2.83;;;1.40;;
53010;SDS011;42803;55.762;38.084;2023-04-07T05:43:00;2.75;;;1.70;;
53010;SDS011;42803;55.762;38.084;2023-04-07T05:45:32;3.88;;;1.80;;
53010;SDS011;42803;55.762;38.084;2023-04-07T05:48:02;5.22;;;1.55;;
53010;SDS011;42803;55.762;38.084;2023-04-07T05:50:42;1.90;;;1.67;;
53010;SDS011;42803;55.762;38.084;2023-04-07T05:53:15;3.00;;;1.55;;
53010;SDS011;42803;55.762;38.084;2023-04-07T05:55:45;4.45;;;1.42;;
53010;SDS011;42803;55.762;38.084;2023-04-07T05:58:40;3.80;;;2.10;;
53010;SDS011;42803;55.762;38.084;2023-04-07T06:01:10;3.85;;;1.90;;
53010;SDS011;42803;55.762;38.084;2023-04-07T06:03:40;2.80;;;1.52;;
53010;SDS011;42803;55.762;38.084;2023-04-07T06:06:25;3.17;;;1.63;;
53010;SDS011;42803;55.762;38.084;2023-04-07T06:08:54;4.47;;;1.30;;
53010;SDS011;42803;55.762;38.084;2023-04-07T06:11:25;5.13;;;1.80;;
53010;SDS011;42803;55.762;38.084;2023-04-07T06:13:54;3.38;;;2.00;;
53010;SDS011;42803;55.762;38.084;2023-04-07T06:16:23;3.25;;;1.58;;
53010;SDS011;42803;55.762;38.084;2023-04-07T06:18:52;4.75;;;1.63;;
53010;SDS011;42803;55.762;38.084;2023-04-07T06:21:22;2.72;;;1.60;;
53010;SDS011;42803;55.762;38.084;2023-04-07T06:23:53;4.10;;;1.42;;
53010;SDS011;42803;55.762;38.084;2023-04-07T06:26:22;3.65;;;1.60;;
53010;SDS011;42803;55.762;38.084;2023-04-07T06:28:52;2.65;;;1.85;;
53010;SDS011;42803;55.762;38.084;2023-04-07T06:31:21;4.03;;;1.83;;
53010;SDS011;42803;55.762;38.084;2023-04-07T06:33:51;3.95;;;1.67;;
53010;SDS011;42803;55.762;38.084;2023-04-07T06:36:21;6.22;;;1.90;;
53010;SDS011;42803;55.762;38.084;2023-04-07T06:38:53;4.00;;;2.03;;
53010;SDS011;42803;55.762;38.084;2023-04-07T06:41:23;4.43;;;1.25;;
53010;SDS011;42803;55.762;38.084;2023-04-07T06:43:53;2.03;;;1.33;;
53010;SDS011;42803;55.762;38.084;2023-04-07T06:46:22;2.45;;;1.60;;
53010;SDS011;42803;55.762;38.084;2023-04-07T06:48:52;3.60;;;1.70;;
53010;SDS011;42803;55.762;38.084;2023-04-07T06:51:22;5.15;;;1.48;;
53010;SDS011;42803;55.762;38.084;2023-04-07T06:53:54;3.42;;;1.30;;
53010;SDS011;42803;55.762;38.084;2023-04-07T06:56:23;7.53;;;1.40;;
53010;SDS011;42803;55.762;38.084;2023-04-07T06:58:52;5.25;;;1.45;;
53010;SDS011;42803;55.762;38.084;2023-04-07T07:01:21;8.23;;;1.77;;
53010;SDS011;42803;55.762;38.084;2023-04-07T07:03:50;9.75;;;1.60;;
53010;SDS011;42803;55.762;38.084;2023-04-07T07:06:20;3.78;;;1.38;;
53010;SDS011;42803;55.762;38.084;2023-04-07T07:08:49;3.80;;;1.30;;
53010;SDS011;42803;55.762;38.084;2023-04-07T07:11:19;5.38;;;1.67;;
53010;SDS011;42803;55.762;38.084;2023-04-07T07:13:49;3.92;;;1.40;;
53010;SDS011;42803;55.762;38.084;2023-04-07T07:16:18;4.40;;;1.63;;
53010;SDS011;42803;55.762;38.084;2023-04-07T07:18:47;9.20;;;1.58;;
53010;SDS011;42803;55.762;38.084;2023-04-07T07:21:16;4.30;;;1.30;;
53010;SDS011;42803;55.762;38.084;2023-04-07T07:23:45;3.22;;;1.05;;
53010;SDS011;42803;55.762;38.084;2023-04-07T07:26:15;3.15;;;1.40;;
53010;SDS011;42803;55.762;38.084;2023-04-07T07:28:46;4.03;;;1.33;;
53010;SDS011;42803;55.762;38.084;2023-04-07T07:31:15;3.85;;;1.42;;
53010;SDS011;42803;55.762;38.084;2023-04-07T07:33:45;7.30;;;1.30;;
53010;SDS011;42803;55.762;38.084;2023-04-07T07:36:16;1.90;;;1.30;;
53010;SDS011;42803;55.762;38.084;2023-04-07T07:38:45;3.78;;;1.38;;
53010;SDS011;42803;55.762;38.084;2023-04-07T07:41:17;1.35;;;1.08;;
53010;SDS011;42803;55.762;38.084;2023-04-07T07:43:47;4.20;;;1.50;;
53010;SDS011;42803;55.762;38.084;2023-04-07T07:46:16;2.63;;;1.50;;
53010;SDS011;42803;55.762;38.084;2023-04-07T07:48:46;27.40;;;2.40;;
53010;SDS011;42803;55.762;38.084;2023-04-07T07:51:15;8.13;;;2.03;;
53010;SDS011;42803;55.762;38.084;2023-04-07T07:53:45;3.20;;;1.38;;
53010;SDS011;42803;55.762;38.084;2023-04-07T07:56:14;2.00;;;1.48;;
53010;SDS011;42803;55.762;38.084;2023-04-07T07:58:44;2.90;;;1.38;;
53010;SDS011;42803;55.762;38.084;2023-04-07T08:01:15;1.23;;;0.90;;
53010;SDS011;42803;55.762;38.084;2023-04-07T08:03:44;3.47;;;1.20;;
53010;SDS011;42803;55.762;38.084;2023-04-07T08:06:15;3.83;;;1.77;;
53010;SDS011;42803;55.762;38.084;2023-04-07T08:08:44;4.75;;;0.90;;
53010;SDS011;42803;55.762;38.084;2023-04-07T08:11:13;1.13;;;0.70;;
53010;SDS011;42803;55.762;38.084;2023-04-07T08:13:43;2.40;;;1.52;;
53010;SDS011;42803;55.762;38.084;2023-04-07T08:16:14;1.65;;;1.05;;
53010;SDS011;42803;55.762;38.084;2023-04-07T08:18:43;1.58;;;1.00;;
53010;SDS011;42803;55.762;38.084;2023-04-07T08:21:13;6.47;;;1.42;;
53010;SDS011;42803;55.762;38.084;2023-04-07T08:23:42;1.23;;;1.02;;
53010;SDS011;42803;55.762;38.084;2023-04-07T08:26:12;5.38;;;1.40;;
53010;SDS011;42803;55.762;38.084;2023-04-07T08:28:41;4.90;;;1.48;;
53010;SDS011;42803;55.762;38.084;2023-04-07T08:31:12;2.17;;;1.20;;
53010;SDS011;42803;55.762;38.084;2023-04-07T08:33:42;2.75;;;1.45;;
53010;SDS011;42803;55.762;38.084;2023-04-07T08:36:12;6.45;;;1.77;;
53010;SDS011;42803;55.762;38.084;2023-04-07T08:38:41;1.98;;;0.93;;
53010;SDS011;42803;55.762;38.084;2023-04-07T08:41:11;1.58;;;1.20;;
53010;SDS011;42803;55.762;38.084;2023-04-07T08:43:41;4.63;;;1.50;;
53010;SDS011;42803;55.762;38.084;2023-04-07T08:46:13;2.03;;;1.15;;
53010;SDS011;42803;55.762;38.084;2023-04-07T08:48:49;1.65;;;0.85;;
53010;SDS011;42803;55.762;38.084;2023-04-07T08:51:25;3.40;;;0.95;;
53010;SDS011;42803;55.762;38.084;2023-04-07T08:54:25;6.53;;;0.98;;
53010;SDS011;42803;55.762;38.084;2023-04-07T08:56:54;1.40;;;0.82;;
53010;SDS011;42803;55.762;38.084;2023-04-07T08:59:24;1.98;;;1.00;;
53010;SDS011;42803;55.762;38.084;2023-04-07T09:01:56;1.50;;;0.77;;
53010;SDS011;42803;55.762;38.084;2023-04-07T09:04:26;2.10;;;0.70;;
53010;SDS011;42803;55.762;38.084;2023-04-07T09:06:56;2.53;;;0.85;;
53010;SDS011;42803;55.762;38.084;2023-04-07T09:12:33;2.30;;;1.10;;
53010;SDS011;42803;55.762;38.084;2023-04-07T09:15:06;0.88;;;0.88;;
53010;SDS011;42803;55.762;38.084;2023-04-07T09:17:36;0.60;;;0.60;;
53010;SDS011;42803;55.762;38.084;2023-04-07T09:20:07;1.10;;;0.90;;
53010;SDS011;42803;55.762;38.084;2023-04-07T09:22:37;1.83;;;0.80;;
53010;SDS011;42803;55.762;38.084;2023-04-07T09:25:13;1.67;;;0.90;;
53010;SDS011;42803;55.762;38.084;2023-04-07T09:27:56;3.83;;;1.10;;
53010;SDS011;42803;55.762;38.084;2023-04-07T09:30:27;1.00;;;0.90;;
53010;SDS011;42803;55.762;38.084;2023-04-07T09:32:57;7.72;;;1.23;;
53010;SDS011;42803;55.762;38.084;2023-04-07T09:35:29;4.68;;;0.80;;
53010;SDS011;42803;55.762;38.084;2023-04-07T09:38:01;2.00;;;1.00;;
53010;SDS011;42803;55.762;38.084;2023-04-07T09:40:32;0.80;;;0.70;;
53010;SDS011;42803;55.762;38.084;2023-04-07T09:43:03;6.97;;;1.05;;
53010;SDS011;42803;55.762;38.084;2023-04-07T09:45:33;4.15;;;0.80;;
53010;SDS011;42803;55.762;38.084;2023-04-07T09:48:04;0.90;;;0.70;;
53010;SDS011;42803;55.762;38.084;2023-04-07T09:50:37;3.13;;;0.88;;
53010;SDS011;42803;55.762;38.084;2023-04-07T09:53:08;2.00;;;1.00;;
53010;SDS011;42803;55.762;38.084;2023-04-07T09:55:37;1.33;;;0.90;;
53010;SDS011;42803;55.762;38.084;2023-04-07T09:58:08;0.73;;;0.60;;
53010;SDS011;42803;55.762;38.084;2023-04-07T10:00:40;1.98;;;0.93;;
53010;SDS011;42803;55.762;38.084;2023-04-07T10:03:10;1.58;;;0.80;;
53010;SDS011;42803;55.762;38.084;2023-04-07T10:05:41;2.67;;;0.88;;
53010;SDS011;42803;55.762;38.084;2023-04-07T10:08:17;2.00;;;1.15;;
53010;SDS011;42803;55.762;38.084;2023-04-07T10:10:47;1.85;;;0.75;;
53010;SDS011;42803;55.762;38.084;2023-04-07T10:13:18;1.17;;;0.85;;
53010;SDS011;42803;55.762;38.084;2023-04-07T10:15:48;1.40;;;1.05;;
53010;SDS011;42803;55.762;38.084;2023-04-07T10:18:18;2.25;;;0.82;;
53010;SDS011;42803;55.762;38.084;2023-04-07T10:20:50;3.17;;;0.90;;
53010;SDS011;42803;55.762;38.084;2023-04-07T10:23:24;3.00;;;1.17;;
53010;SDS011;42803;55.762;38.084;2023-04-07T10:25:56;1.50;;;0.80;;
53010;SDS011;42803;55.762;38.084;2023-04-07T10:28:28;1.60;;;1.10;;
53010;SDS011;42803;55.762;38.084;2023-04-07T10:30:59;0.80;;;0.80;;
53010;SDS011;42803;55.762;38.084;2023-04-07T10:36:19;2.10;;;1.40;;
53010;SDS011;42803;55.762;38.084;2023-04-07T10:41:50;2.30;;;1.23;;
53010;SDS011;42803;55.762;38.084;2023-04-07T10:52:47;4.55;;;1.20;;
53010;SDS011;42803;55.762;38.084;2023-04-07T10:55:28;4.65;;;1.30;;
53010;SDS011;42803;55.762;38.084;2023-04-07T11:03:51;2.30;;;1.15;;
53010;SDS011;42803;55.762;38.084;2023-04-07T11:06:22;2.33;;;0.98;;
53010;SDS011;42803;55.762;38.084;2023-04-07T11:08:54;5.28;;;1.10;;
53010;SDS011;42803;55.762;38.084;2023-04-07T11:11:39;4.63;;;1.33;;
53010;SDS011;42803;55.762;38.084;2023-04-07T11:14:09;3.50;;;1.20;;
53010;SDS011;42803;55.762;38.084;2023-04-07T11:16:39;8.30;;;1.42;;
53010;SDS011;42803;55.762;38.084;2023-04-07T11:19:11;3.60;;;1.17;;
53010;SDS011;42803;55.762;38.084;2023-04-07T11:21:40;9.02;;;1.40;;
53010;SDS011;42803;55.762;38.084;2023-04-07T11:24:11;1.60;;;1.05;;
53010;SDS011;42803;55.762;38.084;2023-04-07T11:27:00;2.92;;;1.40;;
53010;SDS011;42803;55.762;38.084;2023-04-07T11:29:29;19.88;;;2.65;;
53010;SDS011;42803;55.762;38.084;2023-04-07T11:32:00;3.35;;;1.00;;
53010;SDS011;42803;55.762;38.084;2023-04-07T11:34:30;2.42;;;1.10;;
53010;SDS011;42803;55.762;38.084;2023-04-07T11:39:51;2.65;;;1.10;;
53010;SDS011;42803;55.762;38.084;2023-04-07T11:42:31;2.92;;;1.15;;
53010;SDS011;42803;55.762;38.084;2023-04-07T11:45:00;1.10;;;0.65;;
53010;SDS011;42803;55.762;38.084;2023-04-07T11:47:35;8.02;;;1.20;;
53010;SDS011;42803;55.762;38.084;2023-04-07T11:50:05;2.67;;;0.80;;
53010;SDS011;42803;55.762;38.084;2023-04-07T11:52:42;2.05;;;0.82;;
53010;SDS011;42803;55.762;38.084;2023-04-07T11:55:19;2.05;;;0.90;;
53010;SDS011;42803;55.762;38.084;2023-04-07T11:57:50;3.15;;;1.00;;
53010;SDS011;42803;55.762;38.084;2023-04-07T12:00:20;4.18;;;1.20;;
53010;SDS011;42803;55.762;38.084;2023-04-07T12:02:49;3.92;;;1.38;;
53010;SDS011;42803;55.762;38.084;2023-04-07T12:05:19;3.05;;;0.98;;
53010;SDS011;42803;55.762;38.084;2023-04-07T12:07:51;2.55;;;1.30;;
53010;SDS011;42803;55.762;38.084;2023-04-07T12:10:23;2.03;;;1.00;;
53010;SDS011;42803;55.762;38.084;2023-04-07T12:12:54;3.80;;;0.90;;
53010;SDS011;42803;55.762;38.084;2023-04-07T12:15:25;7.82;;;1.30;;
53010;SDS011;42803;55.762;38.084;2023-04-07T12:17:55;2.67;;;1.00;;
53010;SDS011;42803;55.762;38.084;2023-04-07T12:20:25;1.58;;;0.88;;
53010;SDS011;42803;55.762;38.084;2023-04-07T12:22:55;3.60;;;1.08;;
53010;SDS011;42803;55.762;38.084;2023-04-07T12:25:27;2.80;;;1.30;;
53010;SDS011;42803;55.762;38.084;2023-04-07T12:27:59;3.03;;;0.93;;
53010;SDS011;42803;55.762;38.084;2023-04-07T12:30:29;2.45;;;1.30;;
53010;SDS011;42803;55.762;38.084;2023-04-07T12:32:58;5.07;;;1.40;;
53010;SDS011;42803;55.762;38.084;2023-04-07T12:35:29;4.68;;;1.15;;
53010;SDS011;42803;55.762;38.084;2023-04-07T12:37:58;3.03;;;0.90;;
53010;SDS011;42803;55.762;38.084;2023-04-07T12:40:29;6.47;;;1.30;;
53010;SDS011;42803;55.762;38.084;2023-04-07T12:42:58;2.63;;;1.10;;
53010;SDS011;42803;55.762;38.084;2023-04-07T12:45:28;3.55;;;1.27;;
53010;SDS011;42803;55.762;38.084;2023-04-07T12:47:57;2.50;;;1.33;;
53010;SDS011;42803;55.762;38.084;2023-04-07T12:50:27;4.53;;;1.23;;
53010;SDS011;42803;55.762;38.084;2023-04-07T12:52:57;5.32;;;1.25;;
53010;SDS011;42803;55.762;38.084;2023-04-07T12:55:31;9.68;;;1.75;;
53010;SDS011;42803;55.762;38.084;2023-04-07T12:58:02;2.28;;;1.10;;
53010;SDS011;42803;55.762;38.084;2023-04-07T13:00:31;3.17;;;1.40;;
53010;SDS011;42803;55.762;38.084;2023-04-07T13:03:00;6.75;;;1.20;;
53010;SDS011;42803;55.762;38.084;2023-04-07T13:05:29;3.03;;;1.52;;
53010;SDS011;42803;55.762;38.084;2023-04-07T13:07:59;3.13;;;1.50;;
53010;SDS011;42803;55.762;38.084;2023-04-07T13:10:28;6.53;;;1.50;;
53010;SDS011;42803;55.762;38.084;2023-04-07T13:12:58;4.07;;;1.35;;
53010;SDS011;42803;55.762;38.084;2023-04-07T13:15:27;7.45;;;1.23;;
53010;SDS011;42803;55.762;38.084;2023-04-07T13:17:57;2.97;;;1.40;;
53010;SDS011;42803;55.762;38.084;2023-04-07T13:20:26;2.85;;;1.30;;
53010;SDS011;42803;55.762;38.084;2023-04-07T13:22:57;2.47;;;1.33;;
53010;SDS011;42803;55.762;38.084;2023-04-07T13:25:36;2.75;;;1.17;;
53010;SDS011;42803;55.762;38.084;2023-04-07T13:28:06;8.27;;;1.88;;
53010;SDS011;42803;55.762;38.084;2023-04-07T13:30:35;3.17;;;1.40;;
53010;SDS011;42803;55.762;38.084;2023-04-07T13:36:29;3.03;;;1.20;;
53010;SDS011;42803;55.762;38.084;2023-04-07T13:38:59;2.92;;;1.50;;
53010;SDS011;42803;55.762;38.084;2023-04-07T13:41:28;2.67;;;1.27;;
53010;SDS011;42803;55.762;38.084;2023-04-07T13:43:59;2.60;;;1.50;;
53010;SDS011;42803;55.762;38.084;2023-04-07T13:46:29;2.40;;;1.20;;
53010;SDS011;42803;55.762;38.084;2023-04-07T13:48:58;5.13;;;1.23;;
53010;SDS011;42803;55.762;38.084;2023-04-07T13:51:44;3.00;;;1.38;;
53010;SDS011;42803;55.762;38.084;2023-04-07T13:54:15;3.28;;;1.25;;
53010;SDS011;42803;55.762;38.084;2023-04-07T13:56:44;4.25;;;1.42;;
53010;SDS011;42803;55.762;38.084;2023-04-07T13:59:16;2.58;;;1.23;;
53010;SDS011;42803;55.762;38.084;2023-04-07T14:01:45;3.03;;;1.63;;
53010;SDS011;42803;55.762;38.084;2023-04-07T14:04:15;4.30;;;1.45;;
53010;SDS011;42803;55.762;38.084;2023-04-07T14:06:44;2.13;;;1.30;;
53010;SDS011;42803;55.762;38.084;2023-04-07T14:09:13;8.60;;;1.70;;
53010;SDS011;42803;55.762;38.084;2023-04-07T14:11:42;3.75;;;1.55;;
53010;SDS011;42803;55.762;38.084;2023-04-07T14:14:12;3.00;;;1.40;;
53010;SDS011;42803;55.762;38.084;2023-04-07T14:16:43;3.00;;;1.48;;
53010;SDS011;42803;55.762;38.084;2023-04-07T14:19:13;4.00;;;1.80;;
53010;SDS011;42803;55.762;38.084;2023-04-07T14:21:44;4.38;;;1.30;;
53010;SDS011;42803;55.762;38.084;2023-04-07T14:24:14;3.80;;;1.50;;
53010;SDS011;42803;55.762;38.084;2023-04-07T14:26:44;7.07;;;1.67;;
53010;SDS011;42803;55.762;38.084;2023-04-07T14:29:14;3.90;;;1.25;;
53010;SDS011;42803;55.762;38.084;2023-04-07T14:31:45;3.60;;;1.05;;
53010;SDS011;42803;55.762;38.084;2023-04-07T14:34:15;4.20;;;1.13;;
53010;SDS011;42803;55.762;38.084;2023-04-07T14:36:51;4.80;;;1.58;;
53010;SDS011;42803;55.762;38.084;2023-04-07T14:39:21;4.57;;;1.40;;
53010;SDS011;42803;55.762;38.084;2023-04-07T14:41:51;5.60;;;1.38;;
53010;SDS011;42803;55.762;38.084;2023-04-07T14:44:21;5.47;;;1.80;;
53010;SDS011;42803;55.762;38.084;2023-04-07T14:46:51;4.57;;;1.90;;
53010;SDS011;42803;55.762;38.084;2023-04-07T14:49:21;4.93;;;2.10;;
53010;SDS011;42803;55.762;38.084;2023-04-07T14:51:51;4.75;;;1.83;;
53010;SDS011;42803;55.762;38.084;2023-04-07T14:54:20;2.88;;;1.40;;
53010;SDS011;42803;55.762;38.084;2023-04-07T14:56:49;3.80;;;1.30;;
53010;SDS011;42803;55.762;38.084;2023-04-07T14:59:18;3.42;;;1.52;;
53010;SDS011;42803;55.762;38.084;2023-04-07T15:01:47;8.98;;;2.22;;
53010;SDS011;42803;55.762;38.084;2023-04-07T15:04:18;2.10;;;1.50;;
53010;SDS011;42803;55.762;38.084;2023-04-07T15:06:47;2.15;;;1.52;;
53010;SDS011;42803;55.762;38.084;2023-04-07T15:09:16;1.98;;;1.27;;
53010;SDS011;42803;55.762;38.084;2023-04-07T15:11:45;5.78;;;3.65;;
53010;SDS011;42803;55.762;38.084;2023-04-07T15:14:14;5.78;;;1.65;;
53010;SDS011;42803;55.762;38.084;2023-04-07T15:16:43;2.97;;;1.52;;
53010;SDS011;42803;55.762;38.084;2023-04-07T15:19:32;5.45;;;2.10;;
53010;SDS011;42803;55.762;38.084;2023-04-07T15:22:02;7.55;;;2.97;;
53010;SDS011;42803;55.762;38.084;2023-04-07T15:24:31;4.03;;;1.50;;
53010;SDS011;42803;55.762;38.084;2023-04-07T15:27:00;4.47;;;1.27;;
53010;SDS011;42803;55.762;38.084;2023-04-07T15:29:48;3.55;;;1.38;;